createdAt,value
2023-03-11T00:02:21.294Z,0.80
2023-03-11T00:04:47.996Z,0.80
2023-03-11T00:07:14.619Z,0.70
2023-03-11T00:09:41.232Z,0.73
2023-03-11T00:12:08.110Z,0.70
2023-03-11T00:14:34.734Z,0.75
2023-03-11T00:17:01.309Z,0.70
2023-03-11T00:19:27.873Z,0.70
2023-03-11T00:21:54.495Z,0.70
2023-03-11T00:24:21.176Z,0.77
2023-03-11T00:26:47.785Z,0.73
2023-03-11T00:29:14.316Z,0.77
2023-03-11T00:31:40.879Z,0.70
2023-03-11T00:34:07.453Z,0.70
2023-03-11T00:36:34.405Z,0.70
2023-03-11T00:39:04.422Z,0.80
2023-03-11T00:41:31.019Z,0.70
2023-03-11T00:43:57.643Z,0.80
2023-03-11T00:46:24.344Z,0.70
2023-03-11T00:48:51.886Z,0.70
2023-03-11T00:51:18.672Z,0.80
2023-03-11T00:53:46.099Z,0.80
2023-03-11T00:56:15.129Z,0.65
2023-03-11T00:58:43.849Z,0.70
2023-03-11T01:01:16.177Z,0.80
2023-03-11T01:03:43.360Z,0.70
2023-03-11T01:06:16.523Z,0.70
2023-03-11T01:08:43.208Z,0.70
2023-03-11T01:11:09.860Z,0.75
2023-03-11T01:13:37.051Z,0.70
2023-03-11T01:16:03.812Z,0.80
2023-03-11T01:18:30.465Z,0.75
2023-03-11T01:20:57.090Z,0.70
2023-03-11T01:23:23.705Z,0.80
2023-03-11T01:25:50.427Z,0.75
2023-03-11T01:28:17.101Z,0.70
2023-03-11T01:30:43.889Z,0.77
2023-03-11T01:33:16.006Z,0.75
2023-03-11T01:35:43.647Z,0.80
2023-03-11T01:38:10.980Z,0.70
2023-03-11T01:40:40.273Z,0.80
2023-03-11T01:43:41.822Z,0.73
2023-03-11T01:46:18.689Z,0.70
2023-03-11T01:48:48.443Z,0.70
2023-03-11T01:51:18.115Z,0.70
2023-03-11T01:53:45.435Z,0.70
2023-03-11T01:56:13.533Z,0.77
2023-03-11T01:58:44.993Z,0.77
2023-03-11T02:01:12.910Z,0.73
2023-03-11T02:03:41.441Z,0.60
2023-03-11T02:06:16.189Z,0.70
2023-03-11T02:08:44.125Z,0.77
2023-03-11T02:11:15.794Z,0.70
2023-03-11T02:13:45.362Z,0.60
2023-03-11T02:16:14.053Z,0.70
2023-03-11T02:18:42.711Z,0.65
2023-03-11T02:21:24.768Z,0.70
2023-03-11T02:24:30.464Z,0.70
2023-03-11T02:27:09.514Z,0.70
2023-03-11T02:29:37.714Z,0.70
2023-03-11T02:32:10.253Z,0.70
2023-03-11T02:34:39.429Z,0.70
2023-03-11T02:37:16.405Z,0.80
2023-03-11T02:39:49.328Z,0.70
2023-03-11T02:42:28.260Z,0.70
2023-03-11T02:45:16.604Z,0.70
2023-03-11T02:47:43.247Z,0.68
2023-03-11T02:50:13.822Z,0.80
2023-03-11T02:52:40.371Z,0.70
2023-03-11T02:55:07.960Z,0.70
2023-03-11T02:57:34.530Z,0.70
2023-03-11T03:00:06.853Z,0.80
2023-03-11T03:02:33.386Z,0.70
2023-03-11T03:04:59.989Z,0.80
2023-03-11T03:07:26.541Z,0.70
2023-03-11T03:09:53.146Z,0.70
2023-03-11T03:12:19.672Z,0.80
2023-03-11T03:14:46.239Z,0.80
2023-03-11T03:17:12.939Z,0.80
2023-03-11T03:19:39.766Z,0.80
2023-03-11T03:22:06.581Z,0.70
2023-03-11T03:24:33.165Z,0.70
2023-03-11T03:26:59.838Z,0.70
2023-03-11T03:29:26.525Z,0.80
2023-03-11T03:31:53.157Z,0.70
2023-03-11T03:34:19.776Z,0.80
2023-03-11T03:36:46.446Z,0.70
2023-03-11T03:39:13.009Z,0.80
2023-03-11T03:41:39.574Z,0.77
2023-03-11T03:44:06.168Z,0.80
2023-03-11T03:46:32.790Z,0.70
2023-03-11T03:48:59.371Z,0.70
2023-03-11T03:51:25.984Z,0.80
2023-03-11T03:53:52.559Z,0.80
2023-03-11T03:56:19.352Z,0.80
2023-03-11T03:58:45.960Z,0.80
2023-03-11T04:01:13.031Z,0.77
2023-03-11T04:03:40.135Z,0.80
2023-03-11T04:06:15.763Z,0.73
2023-03-11T04:08:42.626Z,0.80
2023-03-11T04:11:09.258Z,0.75
2023-03-11T04:13:35.978Z,0.80
2023-03-11T04:16:07.547Z,0.70
2023-03-11T04:18:35.084Z,0.80
2023-03-11T04:21:06.032Z,0.70
2023-03-11T04:23:32.901Z,0.70
2023-03-11T04:26:01.453Z,0.80
2023-03-11T04:28:28.071Z,0.68
2023-03-11T04:30:54.783Z,0.77
2023-03-11T04:33:21.402Z,0.80
2023-03-11T04:35:48.125Z,0.70
2023-03-11T04:38:14.765Z,0.60
2023-03-11T04:40:41.541Z,0.70
2023-03-11T04:43:08.145Z,0.70
2023-03-11T04:45:36.592Z,0.70
2023-03-11T04:48:03.184Z,0.70
2023-03-11T04:50:29.821Z,0.63
2023-03-11T04:52:57.146Z,0.77
2023-03-11T04:55:24.659Z,0.70
2023-03-11T04:57:51.387Z,0.75
2023-03-11T05:00:22.905Z,0.80
2023-03-11T05:02:49.479Z,0.80
2023-03-11T05:05:16.747Z,0.90
2023-03-11T05:07:43.413Z,0.70
2023-03-11T05:10:10.589Z,0.80
2023-03-11T05:12:37.143Z,0.90
2023-03-11T05:15:04.238Z,0.80
2023-03-11T05:17:30.867Z,0.80
2023-03-11T05:19:57.644Z,0.82
2023-03-11T05:22:24.556Z,0.80
2023-03-11T05:24:51.125Z,0.90
2023-03-11T05:27:21.283Z,0.90
2023-03-11T05:29:48.009Z,0.90
2023-03-11T05:32:14.882Z,0.90
2023-03-11T05:34:41.613Z,0.82
2023-03-11T05:37:09.199Z,0.80
2023-03-11T05:39:37.763Z,0.90
2023-03-11T05:42:05.842Z,0.90
2023-03-11T05:44:33.805Z,0.90
2023-03-11T05:47:00.981Z,0.80
2023-03-11T05:49:28.027Z,0.80
2023-03-11T05:51:57.393Z,0.80
2023-03-11T05:54:25.057Z,0.90
2023-03-11T05:56:51.687Z,0.90
2023-03-11T05:59:18.708Z,0.80
2023-03-11T06:01:45.576Z,0.80
2023-03-11T06:04:14.727Z,0.90
2023-03-11T06:06:41.849Z,0.88
2023-03-11T06:09:13.441Z,0.82
2023-03-11T06:11:40.072Z,0.80
2023-03-11T06:14:06.676Z,0.80
2023-03-11T06:16:33.354Z,0.90
2023-03-11T06:19:00.923Z,0.90
2023-03-11T06:21:27.620Z,0.90
2023-03-11T06:23:54.358Z,0.90
2023-03-11T06:26:22.308Z,0.90
2023-03-11T06:28:49.897Z,1.00
2023-03-11T06:31:25.520Z,0.90
2023-03-11T06:33:53.175Z,0.90
2023-03-11T06:36:20.539Z,0.90
2023-03-11T06:38:48.504Z,1.00
2023-03-11T06:41:15.208Z,1.00
2023-03-11T06:43:42.323Z,1.00
2023-03-11T06:46:19.296Z,1.00
2023-03-11T06:48:46.744Z,1.00
2023-03-11T06:51:13.662Z,1.20
2023-03-11T06:53:40.763Z,1.00
2023-03-11T06:56:14.179Z,1.10
2023-03-11T07:01:22.764Z,1.02
2023-03-11T07:03:50.292Z,1.20
2023-03-11T07:06:22.955Z,1.20
2023-03-11T07:08:51.392Z,1.30
2023-03-11T07:11:21.624Z,1.42
2023-03-11T07:13:48.307Z,1.30
2023-03-11T07:16:18.581Z,1.60
2023-03-11T07:18:47.660Z,1.50
2023-03-11T07:21:17.202Z,1.40
2023-03-11T07:23:44.442Z,1.45
2023-03-11T07:26:12.938Z,1.40
2023-03-11T07:28:40.082Z,1.30
2023-03-11T07:31:19.896Z,1.50
2023-03-11T07:33:46.846Z,1.40
2023-03-11T07:36:16.300Z,1.40
2023-03-11T07:38:43.871Z,1.40
2023-03-11T07:41:12.056Z,1.48
2023-03-11T07:43:39.892Z,1.50
2023-03-11T07:46:09.383Z,1.40
2023-03-11T07:48:38.022Z,1.50
2023-03-11T07:51:11.871Z,1.50
2023-03-11T07:53:40.696Z,1.52
2023-03-11T07:56:08.846Z,1.38
2023-03-11T07:58:35.422Z,1.30
2023-03-11T08:01:16.384Z,1.30
2023-03-11T08:03:45.028Z,1.38
2023-03-11T08:06:21.104Z,1.38
2023-03-11T08:08:49.165Z,1.45
2023-03-11T08:11:16.648Z,1.20
2023-03-11T08:13:45.021Z,1.30
2023-03-11T08:16:14.676Z,1.52
2023-03-11T08:18:41.974Z,1.40
2023-03-11T08:21:11.987Z,1.45
2023-03-11T08:23:38.638Z,1.60
2023-03-11T08:26:12.447Z,1.60
2023-03-11T08:28:39.183Z,1.83
2023-03-11T08:31:17.005Z,1.63
2023-03-11T08:33:45.502Z,1.45
2023-03-11T08:36:12.430Z,1.73
2023-03-11T08:38:39.290Z,1.70
2023-03-11T08:41:06.022Z,1.50
2023-03-11T08:43:33.843Z,1.60
2023-03-11T08:46:01.510Z,1.60
2023-03-11T08:48:28.287Z,1.73
2023-03-11T08:50:54.960Z,1.55
2023-03-11T08:53:22.991Z,1.70
2023-03-11T08:55:51.204Z,1.70
2023-03-11T08:58:18.374Z,1.80
2023-03-11T09:00:45.374Z,1.50
2023-03-11T09:03:13.500Z,1.80
2023-03-11T09:05:40.200Z,1.80
2023-03-11T09:08:07.030Z,1.50
2023-03-11T09:10:33.674Z,1.60
2023-03-11T09:13:00.267Z,1.70
2023-03-11T09:15:26.896Z,1.70
2023-03-11T09:17:54.390Z,1.50
2023-03-11T09:20:21.385Z,1.40
2023-03-11T09:22:48.595Z,1.70
2023-03-11T09:25:15.526Z,1.70
2023-03-11T09:27:42.214Z,1.70
2023-03-11T09:30:10.440Z,1.80
2023-03-11T09:32:37.491Z,1.90
2023-03-11T09:35:04.788Z,1.65
2023-03-11T09:37:31.561Z,2.00
2023-03-11T09:39:58.182Z,1.90
2023-03-11T09:42:37.588Z,1.80
2023-03-11T09:45:17.203Z,1.88
2023-03-11T09:47:52.982Z,2.05
2023-03-11T09:50:42.612Z,1.90
2023-03-11T09:53:30.390Z,1.90
2023-03-11T09:56:00.110Z,1.80
2023-03-11T09:58:47.074Z,1.88
2023-03-11T10:01:36.017Z,1.88
2023-03-11T10:04:06.821Z,1.85
2023-03-11T10:06:33.368Z,1.80
2023-03-11T10:09:12.141Z,1.75
2023-03-11T10:12:12.086Z,1.80
2023-03-11T10:14:44.732Z,1.85
2023-03-11T10:17:37.913Z,1.90
2023-03-11T10:20:04.995Z,1.90
2023-03-11T10:22:53.869Z,1.90
2023-03-11T10:26:16.141Z,2.00
2023-03-11T10:28:54.494Z,1.70
2023-03-11T10:31:37.635Z,2.00
2023-03-11T10:34:34.411Z,1.80
2023-03-11T10:37:02.012Z,2.28
2023-03-11T10:39:29.044Z,1.80
2023-03-11T10:41:59.510Z,2.30
2023-03-11T10:44:32.580Z,2.15
2023-03-11T10:46:59.221Z,2.00
2023-03-11T10:49:26.113Z,1.90
2023-03-11T10:51:53.852Z,2.00
2023-03-11T10:54:33.583Z,1.88
2023-03-11T10:57:06.033Z,1.90
2023-03-11T10:59:45.331Z,2.00
2023-03-11T11:02:28.097Z,1.80
2023-03-11T11:05:06.491Z,2.00
2023-03-11T11:07:40.783Z,1.70
2023-03-11T11:10:26.009Z,1.80
2023-03-11T11:12:57.001Z,1.75
2023-03-11T11:15:41.839Z,1.55
2023-03-11T11:18:27.976Z,1.90
2023-03-11T11:20:56.357Z,1.70
2023-03-11T11:23:27.392Z,1.60
2023-03-11T11:26:04.635Z,1.60
2023-03-11T11:28:33.379Z,1.73
2023-03-11T11:31:06.284Z,1.83
2023-03-11T11:33:54.304Z,1.70
2023-03-11T11:36:25.460Z,1.40
2023-03-11T11:38:58.559Z,1.88
2023-03-11T11:41:27.619Z,1.83
2023-03-11T11:44:03.684Z,1.60
2023-03-11T11:46:57.778Z,1.63
2023-03-11T11:52:01.269Z,1.52
2023-03-11T11:54:46.352Z,1.70
2023-03-11T11:57:15.688Z,1.70
2023-03-11T11:59:43.701Z,1.50
2023-03-11T12:02:16.606Z,1.80
2023-03-11T12:05:07.708Z,1.80
2023-03-11T12:07:46.155Z,1.63
2023-03-11T12:10:28.118Z,1.80
2023-03-11T12:13:19.864Z,1.83
2023-03-11T12:16:17.350Z,1.80
2023-03-11T12:18:52.854Z,1.60
2023-03-11T12:21:50.472Z,1.80
2023-03-11T12:24:20.154Z,1.83
2023-03-11T12:26:49.948Z,1.75
2023-03-11T12:29:34.387Z,1.80
2023-03-11T12:32:02.785Z,2.00
2023-03-11T12:34:34.098Z,2.10
2023-03-11T12:37:04.659Z,1.70
2023-03-11T12:39:33.961Z,1.80
2023-03-11T12:42:19.366Z,1.80
2023-03-11T12:44:47.114Z,1.98
2023-03-11T12:47:13.799Z,1.98
2023-03-11T12:49:46.145Z,2.00
2023-03-11T12:52:13.272Z,1.90
2023-03-11T12:54:55.542Z,1.80
2023-03-11T12:57:22.147Z,1.92
2023-03-11T13:00:19.742Z,1.92
2023-03-11T13:03:23.603Z,1.98
2023-03-11T13:06:19.981Z,2.00
2023-03-11T13:08:54.899Z,2.10
2023-03-11T13:11:33.826Z,1.70
2023-03-11T13:14:09.814Z,1.95
2023-03-11T13:16:38.167Z,2.13
2023-03-11T13:19:28.166Z,1.80
2023-03-11T13:21:57.903Z,2.10
2023-03-11T13:24:29.554Z,1.80
2023-03-11T13:26:59.486Z,1.90
2023-03-11T13:29:57.263Z,1.90
2023-03-11T13:33:07.667Z,1.88
2023-03-11T13:36:18.951Z,1.80
2023-03-11T13:39:12.530Z,1.92
2023-03-11T13:41:44.441Z,2.00
2023-03-11T13:44:35.123Z,2.00
2023-03-11T13:47:09.903Z,2.08
2023-03-11T13:50:04.102Z,2.00
2023-03-11T13:52:38.341Z,1.90
2023-03-11T13:55:36.461Z,1.85
2023-03-11T13:58:15.809Z,1.80
2023-03-11T14:00:52.109Z,1.70
2023-03-11T14:03:23.091Z,2.00
2023-03-11T14:06:11.004Z,1.83
2023-03-11T14:08:39.088Z,1.80
2023-03-11T14:11:10.364Z,1.92
2023-03-11T14:13:45.983Z,1.75
2023-03-11T14:16:35.558Z,1.90
2023-03-11T14:19:15.413Z,1.63
2023-03-11T14:21:43.455Z,1.98
2023-03-11T14:24:17.493Z,1.67
2023-03-11T14:26:45.165Z,1.80
2023-03-11T14:29:17.612Z,1.45
2023-03-11T14:31:45.874Z,2.00
2023-03-11T14:34:20.166Z,1.65
2023-03-11T14:36:50.936Z,1.70
2023-03-11T14:39:30.924Z,1.90
2023-03-11T14:42:06.773Z,1.70
2023-03-11T14:44:38.378Z,1.70
2023-03-11T14:47:07.773Z,1.83
2023-03-11T14:49:34.775Z,1.90
2023-03-11T14:52:11.416Z,1.80
2023-03-11T14:54:38.769Z,1.73
2023-03-11T14:57:15.640Z,1.70
2023-03-11T14:59:44.149Z,1.98
2023-03-11T15:02:54.006Z,1.70
2023-03-11T15:05:38.721Z,1.52
2023-03-11T15:08:07.466Z,1.70
2023-03-11T15:10:36.964Z,1.52
2023-03-11T15:13:07.003Z,1.60
2023-03-11T15:15:33.836Z,1.40
2023-03-11T15:18:01.694Z,1.40
2023-03-11T15:20:31.142Z,1.30
2023-03-11T15:23:03.704Z,1.40
2023-03-11T15:25:34.253Z,1.52
2023-03-11T15:28:30.359Z,1.17
2023-03-11T15:31:15.737Z,1.08
2023-03-11T15:33:43.678Z,1.35
2023-03-11T15:36:33.640Z,1.40
2023-03-11T15:39:30.370Z,1.40
2023-03-11T15:42:00.451Z,1.35
2023-03-11T15:44:36.114Z,1.30
2023-03-11T15:47:04.341Z,1.30
2023-03-11T15:49:30.991Z,1.40
2023-03-11T15:52:01.779Z,1.40
2023-03-11T15:54:29.155Z,1.13
2023-03-11T15:56:58.432Z,1.20
2023-03-11T15:59:25.764Z,1.33
2023-03-11T16:01:52.370Z,1.38
2023-03-11T16:04:20.430Z,1.50
2023-03-11T16:06:59.407Z,1.40
2023-03-11T16:09:31.635Z,1.52
2023-03-11T16:11:58.319Z,1.50
2023-03-11T16:14:25.064Z,1.40
2023-03-11T16:16:51.693Z,1.40
2023-03-11T16:19:18.259Z,1.40
2023-03-11T16:21:49.645Z,1.40
2023-03-11T16:24:22.650Z,1.33
2023-03-11T16:26:52.144Z,1.30
2023-03-11T16:29:20.003Z,1.23
2023-03-11T16:31:47.335Z,1.30
2023-03-11T16:34:13.984Z,1.20
2023-03-11T16:36:40.981Z,1.23
2023-03-11T16:39:07.593Z,1.00
2023-03-11T16:41:42.272Z,1.20
2023-03-11T16:44:09.886Z,1.10
2023-03-11T16:46:36.822Z,1.00
2023-03-11T16:49:03.957Z,1.05
2023-03-11T16:51:30.620Z,0.90
2023-03-11T16:53:57.215Z,0.95
2023-03-11T16:56:23.776Z,0.90
2023-03-11T16:58:50.674Z,1.00
2023-03-11T17:01:19.117Z,0.90
2023-03-11T17:03:48.717Z,0.90
2023-03-11T17:06:17.146Z,1.00
2023-03-11T17:08:48.951Z,0.90
2023-03-11T17:11:24.445Z,0.82
2023-03-11T17:13:51.150Z,1.00
2023-03-11T17:16:17.767Z,0.93
2023-03-11T17:18:44.525Z,1.00
2023-03-11T17:21:13.826Z,0.93
2023-03-11T17:23:40.750Z,0.80
2023-03-11T17:26:09.675Z,1.00
2023-03-11T17:28:37.288Z,0.90
2023-03-11T17:31:06.615Z,1.00
2023-03-11T17:33:33.880Z,1.00
2023-03-11T17:36:05.477Z,1.02
2023-03-11T17:38:32.571Z,1.10
2023-03-11T17:40:59.371Z,1.00
2023-03-11T17:43:26.144Z,1.00
2023-03-11T17:45:53.796Z,1.00
2023-03-11T17:48:21.459Z,0.80
2023-03-11T17:50:48.112Z,1.00
2023-03-11T17:53:14.696Z,0.90
2023-03-11T17:55:41.414Z,0.90
2023-03-11T17:58:08.700Z,0.90
2023-03-11T18:00:35.409Z,0.90
2023-03-11T18:03:02.023Z,0.90
2023-03-11T18:05:28.547Z,1.00
2023-03-11T18:07:55.213Z,0.90
2023-03-11T18:10:21.832Z,0.90
2023-03-11T18:12:48.800Z,0.80
2023-03-11T18:15:19.286Z,0.88
2023-03-11T18:17:47.218Z,0.80
2023-03-11T18:20:14.624Z,0.90
2023-03-11T18:22:46.139Z,0.88
2023-03-11T18:25:13.961Z,0.90
2023-03-11T18:27:40.728Z,0.90
2023-03-11T18:30:08.449Z,0.90
2023-03-11T18:32:35.104Z,0.90
2023-03-11T18:35:01.745Z,0.90
2023-03-11T18:37:28.334Z,0.90
2023-03-11T18:39:56.092Z,0.80
2023-03-11T18:42:22.789Z,0.80
2023-03-11T18:44:49.407Z,0.90
2023-03-11T18:47:15.983Z,1.00
2023-03-11T18:49:42.696Z,0.88
2023-03-11T18:52:10.802Z,0.90
2023-03-11T18:54:37.465Z,0.80
2023-03-11T18:57:04.071Z,0.85
2023-03-11T18:59:30.773Z,0.90
2023-03-11T19:01:57.371Z,1.00
2023-03-11T19:04:24.193Z,0.90
2023-03-11T19:06:50.863Z,0.90
2023-03-11T19:09:18.595Z,0.90
2023-03-11T19:11:45.871Z,0.90
2023-03-11T19:14:13.095Z,0.90
2023-03-11T19:16:39.742Z,0.90
2023-03-11T19:19:06.831Z,0.90
2023-03-11T19:21:33.440Z,0.90
2023-03-11T19:24:00.297Z,1.00
2023-03-11T19:26:43.111Z,0.90
2023-03-11T19:29:10.167Z,0.90
2023-03-11T19:31:36.744Z,0.80
2023-03-11T19:34:03.551Z,0.80
2023-03-11T19:36:30.205Z,0.90
2023-03-11T19:38:56.835Z,0.90
2023-03-11T19:41:23.474Z,0.80
2023-03-11T19:43:50.066Z,0.90
2023-03-11T19:46:19.689Z,0.80
2023-03-11T19:48:46.883Z,0.90
2023-03-11T19:51:13.631Z,0.80
2023-03-11T19:53:42.954Z,0.90
2023-03-11T19:56:10.622Z,0.80
2023-03-11T19:58:37.267Z,0.80
2023-03-11T20:01:04.314Z,0.90
2023-03-11T20:03:31.226Z,0.80
2023-03-11T20:06:04.713Z,1.00
2023-03-11T20:11:05.063Z,0.80
2023-03-11T20:13:33.446Z,0.90
2023-03-11T20:16:09.009Z,0.90
2023-03-11T20:18:35.808Z,0.98
2023-03-11T20:21:07.812Z,0.85
2023-03-11T20:23:34.849Z,0.98
2023-03-11T20:26:09.285Z,0.82
2023-03-11T20:28:35.988Z,0.90
2023-03-11T20:31:28.917Z,0.90
2023-03-11T20:33:56.454Z,0.80
2023-03-11T20:36:26.226Z,0.95
2023-03-11T20:38:54.337Z,0.80
2023-03-11T20:41:23.389Z,0.80
2023-03-11T20:43:56.037Z,0.80
2023-03-11T20:46:23.205Z,0.83
2023-03-11T20:48:50.778Z,0.80
2023-03-11T20:51:20.593Z,0.85
2023-03-11T20:53:48.329Z,0.80
2023-03-11T20:56:18.525Z,0.85
2023-03-11T20:58:46.145Z,0.80
2023-03-11T21:01:15.660Z,0.90
2023-03-11T21:03:43.366Z,0.85
2023-03-11T21:06:22.330Z,0.80
2023-03-11T21:08:50.025Z,0.80
2023-03-11T21:11:17.620Z,0.80
2023-03-11T21:13:44.521Z,0.80
2023-03-11T21:16:11.299Z,0.80
2023-03-11T21:18:38.534Z,0.80
2023-03-11T21:21:08.502Z,0.80
2023-03-11T21:23:35.859Z,0.80
2023-03-11T21:26:04.740Z,0.80
2023-03-11T21:28:32.354Z,0.80
2023-03-11T21:31:02.642Z,0.80
2023-03-11T21:33:30.113Z,0.80
2023-03-11T21:35:59.511Z,0.80
2023-03-11T21:38:27.221Z,0.80
2023-03-11T21:41:03.763Z,0.70
2023-03-11T21:43:30.394Z,0.70
2023-03-11T21:45:57.086Z,0.80
2023-03-11T21:48:23.921Z,0.70
2023-03-11T21:50:52.258Z,0.80
2023-03-11T21:53:19.145Z,0.80
2023-03-11T21:55:47.274Z,0.70
2023-03-11T21:58:15.016Z,0.70
2023-03-11T22:00:41.876Z,0.70
2023-03-11T22:03:08.687Z,0.80
2023-03-11T22:05:35.408Z,0.60
2023-03-11T22:08:02.072Z,0.70
2023-03-11T22:10:28.845Z,0.70
2023-03-11T22:12:55.678Z,0.60
2023-03-11T22:15:22.431Z,0.70
2023-03-11T22:17:49.347Z,0.70
2023-03-11T22:20:16.052Z,0.70
2023-03-11T22:22:42.743Z,0.60
2023-03-11T22:25:09.731Z,0.70
2023-03-11T22:27:36.640Z,0.70
2023-03-11T22:30:03.542Z,0.70
2023-03-11T22:32:30.177Z,0.70
2023-03-11T22:34:56.802Z,0.70
2023-03-11T22:37:23.613Z,0.70
2023-03-11T22:39:50.273Z,0.70
2023-03-11T22:42:16.921Z,0.70
2023-03-11T22:44:43.518Z,0.73
2023-03-11T22:47:10.119Z,0.80
2023-03-11T22:49:36.864Z,0.70
2023-03-11T22:52:03.679Z,0.70
2023-03-11T22:54:30.302Z,0.63
2023-03-11T22:56:57.052Z,0.70
2023-03-11T22:59:26.991Z,0.70
2023-03-11T23:01:53.567Z,0.60
2023-03-11T23:04:20.222Z,0.80
2023-03-11T23:06:46.842Z,0.70
2023-03-11T23:09:13.463Z,0.70
2023-03-11T23:11:40.010Z,0.65
2023-03-11T23:14:06.784Z,0.70
2023-03-11T23:16:33.410Z,0.60
2023-03-11T23:19:01.222Z,0.60
2023-03-11T23:21:33.237Z,0.70
2023-03-11T23:24:01.631Z,0.60
2023-03-11T23:26:29.685Z,0.68
2023-03-11T23:28:56.899Z,0.55
2023-03-11T23:31:25.196Z,0.60
2023-03-11T23:33:52.173Z,0.70
2023-03-11T23:36:21.135Z,0.60
2023-03-11T23:38:49.705Z,0.50
2023-03-11T23:41:19.323Z,0.60
2023-03-11T23:43:46.560Z,0.60
2023-03-11T23:46:13.364Z,0.60
2023-03-11T23:48:41.081Z,0.70
2023-03-11T23:51:09.255Z,0.60
2023-03-11T23:53:37.856Z,0.60
2023-03-11T23:56:16.983Z,0.70
2023-03-11T23:58:44.565Z,0.60
